DLH2L EDDM-EDDH
Flight info
| Callsign | DLH2L |
|---|---|
| Flight time | 1h 41m |
| Altitude | 36000 |
| Route | INPUD3Q/08L INPUD Y102 UPALA M726 NARUS DCT ABGUS DCT DIRBO T902 RARUP RARUP6A |
| Aircraft | A321/M-SDE3FGHIRWY/LB1 |
Departure
| Time | 2026-04-30 19:06 |
|---|---|
| Airport | Munich Airport (EDDM) |
Arrival
| Time | 2026-04-30 20:47 |
|---|---|
| Airport | Hamburg Helmut Schmidt Airport (EDDH) |
| Time | Latitude | Longitude | Altitude | Speed | Heading |
|---|---|---|---|---|---|
| 2026-04-30 18:30 | 48.35525 | 11.79289 | 1474 ft | 0 kts | 263° |
| 2026-04-30 18:56 | 48.35527 | 11.79316 | 1474 ft | 2 kts | 263° |
| 2026-04-30 18:56 | 48.35529 | 11.79339 | 1474 ft | 2 kts | 264° |
| 2026-04-30 18:56 | 48.35530 | 11.79361 | 1473 ft | 2 kts | 263° |
| 2026-04-30 18:57 | 48.35532 | 11.79406 | 1473 ft | 2 kts | 291° |
| 2026-04-30 18:57 | 48.35525 | 11.79426 | 1473 ft | 2 kts | 292° |
| 2026-04-30 18:57 | 48.35517 | 11.79443 | 1473 ft | 2 kts | 340° |
| 2026-04-30 18:58 | 48.35508 | 11.79446 | 1473 ft | 0 kts | 1° |
| 2026-04-30 19:00 | 48.35515 | 11.79445 | 1473 ft | 5 kts | 357° |
| 2026-04-30 19:00 | 48.35658 | 11.79419 | 1472 ft | 14 kts | 353° |
| 2026-04-30 19:01 | 48.35901 | 11.79366 | 1470 ft | 18 kts | 343° |
| 2026-04-30 19:01 | 48.36020 | 11.79331 | 1469 ft | 13 kts | 352° |
| 2026-04-30 19:02 | 48.36076 | 11.79094 | 1470 ft | 20 kts | 263° |
| 2026-04-30 19:02 | 48.36046 | 11.78693 | 1472 ft | 18 kts | 263° |
| 2026-04-30 19:03 | 48.36013 | 11.78275 | 1473 ft | 26 kts | 263° |
| 2026-04-30 19:03 | 48.35975 | 11.77779 | 1474 ft | 14 kts | 265° |
| 2026-04-30 19:04 | 48.36123 | 11.77681 | 1473 ft | 17 kts | 31° |
| 2026-04-30 19:04 | 48.36270 | 11.77953 | 1471 ft | 16 kts | 54° |
| 2026-04-30 19:05 | 48.36388 | 11.78241 | 1470 ft | 20 kts | 78° |
| 2026-04-30 19:05 | 48.36522 | 11.79985 | 1463 ft | 147 kts | 84° |
| 2026-04-30 19:06 | 48.36783 | 11.83451 | 2442 ft | 171 kts | 85° |
| 2026-04-30 19:06 | 48.36899 | 11.85160 | 3282 ft | 165 kts | 82° |
| 2026-04-30 19:06 | 48.38525 | 11.87266 | 4192 ft | 189 kts | 13° |
| 2026-04-30 19:07 | 48.41299 | 11.86612 | 5000 ft | 212 kts | 352° |
| 2026-04-30 19:07 | 48.42616 | 11.85497 | 5362 ft | 234 kts | 319° |
| 2026-04-30 19:08 | 48.44673 | 11.81359 | 6125 ft | 261 kts | 311° |
| 2026-04-30 19:08 | 48.47585 | 11.77901 | 6936 ft | 282 kts | 342° |
| 2026-04-30 19:08 | 48.49421 | 11.76798 | 7680 ft | 285 kts | 342° |
| 2026-04-30 19:09 | 48.53047 | 11.74442 | 9281 ft | 289 kts | 339° |
| 2026-04-30 19:09 | 48.54858 | 11.73131 | 10080 ft | 289 kts | 339° |
| 2026-04-30 19:09 | 48.56648 | 11.71840 | 10882 ft | 288 kts | 339° |
| 2026-04-30 19:10 | 48.60555 | 11.70167 | 11737 ft | 307 kts | 355° |
| 2026-04-30 19:10 | 48.64880 | 11.69083 | 12876 ft | 319 kts | 354° |
| 2026-04-30 19:11 | 48.67043 | 11.68477 | 13534 ft | 321 kts | 353° |
| 2026-04-30 19:11 | 48.71484 | 11.67152 | 14675 ft | 332 kts | 353° |
| 2026-04-30 19:11 | 48.73750 | 11.66447 | 15329 ft | 334 kts | 353° |
| 2026-04-30 19:12 | 48.76019 | 11.65734 | 15954 ft | 336 kts | 353° |
| 2026-04-30 19:12 | 48.78310 | 11.65010 | 16559 ft | 338 kts | 353° |
| 2026-04-30 19:12 | 48.80610 | 11.64278 | 17226 ft | 340 kts | 353° |
| 2026-04-30 19:13 | 48.85223 | 11.62805 | 18432 ft | 342 kts | 353° |
| 2026-04-30 19:13 | 48.89917 | 11.61300 | 19586 ft | 347 kts | 354° |
| 2026-04-30 19:13 | 48.92252 | 11.60552 | 20117 ft | 349 kts | 354° |
| 2026-04-30 19:14 | 48.94640 | 11.59785 | 20613 ft | 352 kts | 354° |
| 2026-04-30 19:14 | 48.97047 | 11.59011 | 21109 ft | 355 kts | 354° |
| 2026-04-30 19:14 | 48.99462 | 11.58234 | 21603 ft | 357 kts | 354° |
| 2026-04-30 19:14 | 49.01881 | 11.57453 | 22091 ft | 359 kts | 354° |
| 2026-04-30 19:15 | 49.04326 | 11.56663 | 22549 ft | 362 kts | 354° |
| 2026-04-30 19:15 | 49.09287 | 11.55060 | 23466 ft | 367 kts | 354° |
| 2026-04-30 19:15 | 49.11815 | 11.54241 | 23919 ft | 369 kts | 354° |
| 2026-04-30 19:16 | 49.14311 | 11.53430 | 24362 ft | 371 kts | 354° |
| 2026-04-30 19:16 | 49.16843 | 11.52610 | 24822 ft | 372 kts | 354° |
| 2026-04-30 19:16 | 49.21928 | 11.50957 | 25629 ft | 377 kts | 354° |
| 2026-04-30 19:17 | 49.24506 | 11.50117 | 26048 ft | 379 kts | 354° |
| 2026-04-30 19:17 | 49.29703 | 11.48426 | 26782 ft | 384 kts | 354° |
| 2026-04-30 19:17 | 49.32308 | 11.47575 | 27156 ft | 386 kts | 354° |
| 2026-04-30 19:18 | 49.36694 | 11.46141 | 27773 ft | 388 kts | 354° |
| 2026-04-30 19:18 | 49.40241 | 11.44976 | 28264 ft | 391 kts | 354° |
| 2026-04-30 19:18 | 49.42903 | 11.44104 | 28575 ft | 393 kts | 354° |
| 2026-04-30 19:19 | 49.45571 | 11.43228 | 28901 ft | 395 kts | 354° |
| 2026-04-30 19:19 | 49.48296 | 11.42328 | 29223 ft | 397 kts | 355° |
| 2026-04-30 19:19 | 49.53746 | 11.40536 | 29877 ft | 400 kts | 355° |
| 2026-04-30 19:20 | 49.56470 | 11.39636 | 30168 ft | 402 kts | 355° |
| 2026-04-30 19:20 | 49.59230 | 11.38725 | 30454 ft | 403 kts | 354° |
| 2026-04-30 19:20 | 49.64721 | 11.36910 | 31025 ft | 406 kts | 354° |
| 2026-04-30 19:21 | 49.67497 | 11.35988 | 31407 ft | 405 kts | 354° |
| 2026-04-30 19:21 | 49.72959 | 11.34171 | 32134 ft | 402 kts | 354° |
| 2026-04-30 19:22 | 49.78416 | 11.32354 | 32785 ft | 401 kts | 353° |
| 2026-04-30 19:22 | 49.86591 | 11.30267 | 33786 ft | 391 kts | 0° |
| 2026-04-30 19:23 | 49.94695 | 11.29360 | 34629 ft | 389 kts | 0° |
| 2026-04-30 19:24 | 50.00110 | 11.28733 | 34974 ft | 392 kts | 0° |
| 2026-04-30 19:24 | 50.02806 | 11.28414 | 35141 ft | 393 kts | 0° |
| 2026-04-30 19:24 | 50.08274 | 11.27759 | 35504 ft | 394 kts | 0° |
| 2026-04-30 19:25 | 50.16459 | 11.26768 | 36068 ft | 395 kts | 0° |
| 2026-04-30 19:26 | 50.21949 | 11.26103 | 36375 ft | 397 kts | 360° |
| 2026-04-30 19:26 | 50.27467 | 11.25432 | 36413 ft | 399 kts | 359° |
| 2026-04-30 19:27 | 50.35732 | 11.24419 | 36412 ft | 399 kts | 360° |
| 2026-04-30 19:28 | 50.44041 | 11.23402 | 36413 ft | 399 kts | 359° |
| 2026-04-30 19:29 | 50.55106 | 11.22041 | 36414 ft | 399 kts | 359° |
| 2026-04-30 19:30 | 50.66210 | 11.20668 | 36421 ft | 401 kts | 359° |
| 2026-04-30 19:31 | 50.77332 | 11.19288 | 36419 ft | 401 kts | 359° |
| 2026-04-30 19:31 | 50.85650 | 11.18249 | 36422 ft | 401 kts | 359° |
| 2026-04-30 19:32 | 50.91214 | 11.17553 | 36431 ft | 401 kts | 359° |
| 2026-04-30 19:32 | 50.96793 | 11.16853 | 36426 ft | 402 kts | 359° |
| 2026-04-30 19:33 | 51.02380 | 11.16150 | 36430 ft | 403 kts | 359° |
| 2026-04-30 19:33 | 51.07975 | 11.15445 | 36424 ft | 402 kts | 359° |
| 2026-04-30 19:34 | 51.13592 | 11.14736 | 36426 ft | 402 kts | 359° |
| 2026-04-30 19:35 | 51.21990 | 11.13670 | 36423 ft | 403 kts | 359° |
| 2026-04-30 19:35 | 51.27602 | 11.12958 | 36423 ft | 403 kts | 359° |
| 2026-04-30 19:36 | 51.33185 | 11.12245 | 36422 ft | 404 kts | 359° |
| 2026-04-30 19:36 | 51.41584 | 11.11173 | 36422 ft | 404 kts | 359° |
| 2026-04-30 19:37 | 51.47192 | 11.10455 | 36422 ft | 404 kts | 359° |
| 2026-04-30 19:37 | 51.52784 | 11.09734 | 36422 ft | 404 kts | 359° |
| 2026-04-30 19:38 | 51.58378 | 11.09014 | 36422 ft | 405 kts | 358° |
| 2026-04-30 19:38 | 51.64013 | 11.08284 | 36423 ft | 405 kts | 358° |
| 2026-04-30 19:39 | 51.69641 | 11.07556 | 36422 ft | 405 kts | 358° |
| 2026-04-30 19:39 | 51.75284 | 11.06820 | 36430 ft | 405 kts | 358° |
| 2026-04-30 19:40 | 51.80769 | 11.06099 | 36432 ft | 379 kts | 358° |
| 2026-04-30 19:40 | 51.85928 | 11.05422 | 36440 ft | 372 kts | 358° |
| 2026-04-30 19:41 | 51.88532 | 11.04949 | 36748 ft | 373 kts | 356° |
| 2026-04-30 19:41 | 51.91090 | 11.04418 | 36295 ft | 373 kts | 356° |
| 2026-04-30 19:41 | 51.96286 | 11.03310 | 36110 ft | 374 kts | 355° |
| 2026-04-30 19:42 | 51.98867 | 11.02759 | 35860 ft | 375 kts | 355° |
| 2026-04-30 19:42 | 52.01472 | 11.02204 | 35608 ft | 376 kts | 355° |
| 2026-04-30 19:42 | 52.04058 | 11.01651 | 35360 ft | 377 kts | 355° |
| 2026-04-30 19:42 | 52.06648 | 11.01097 | 35185 ft | 377 kts | 355° |
| 2026-04-30 19:43 | 52.09260 | 11.00537 | 34891 ft | 378 kts | 355° |
| 2026-04-30 19:43 | 52.11856 | 10.99977 | 34515 ft | 372 kts | 355° |
| 2026-04-30 19:43 | 52.14492 | 10.99409 | 34250 ft | 374 kts | 355° |
| 2026-04-30 19:44 | 52.19580 | 10.98312 | 33463 ft | 363 kts | 355° |
| 2026-04-30 19:44 | 52.22063 | 10.97775 | 33096 ft | 357 kts | 355° |
| 2026-04-30 19:44 | 52.24474 | 10.97255 | 32743 ft | 354 kts | 355° |
| 2026-04-30 19:44 | 52.26945 | 10.96722 | 32484 ft | 352 kts | 355° |
| 2026-04-30 19:45 | 52.29358 | 10.96200 | 32117 ft | 348 kts | 356° |
| 2026-04-30 19:45 | 52.31734 | 10.95685 | 31727 ft | 344 kts | 356° |
| 2026-04-30 19:45 | 52.34103 | 10.95173 | 31498 ft | 344 kts | 355° |
| 2026-04-30 19:45 | 52.36488 | 10.94658 | 31334 ft | 345 kts | 356° |
| 2026-04-30 19:46 | 52.38870 | 10.94142 | 31216 ft | 343 kts | 355° |
| 2026-04-30 19:46 | 52.41218 | 10.93631 | 30878 ft | 338 kts | 355° |
| 2026-04-30 19:46 | 52.43507 | 10.93132 | 30502 ft | 334 kts | 355° |
| 2026-04-30 19:46 | 52.45812 | 10.92629 | 30328 ft | 332 kts | 356° |
| 2026-04-30 19:47 | 52.48092 | 10.92132 | 30148 ft | 330 kts | 356° |
| 2026-04-30 19:47 | 52.49614 | 10.91799 | 30015 ft | 330 kts | 356° |
| 2026-04-30 19:47 | 52.52677 | 10.91132 | 29758 ft | 331 kts | 356° |
| 2026-04-30 19:47 | 52.54960 | 10.90633 | 29584 ft | 332 kts | 356° |
| 2026-04-30 19:48 | 52.57277 | 10.90125 | 29435 ft | 332 kts | 356° |
| 2026-04-30 19:48 | 52.59566 | 10.89625 | 29314 ft | 333 kts | 356° |
| 2026-04-30 19:48 | 52.61848 | 10.89124 | 29158 ft | 330 kts | 356° |
| 2026-04-30 19:48 | 52.64122 | 10.88623 | 28688 ft | 329 kts | 356° |
| 2026-04-30 19:49 | 52.66372 | 10.88129 | 28019 ft | 332 kts | 356° |
| 2026-04-30 19:49 | 52.70984 | 10.87112 | 26749 ft | 336 kts | 356° |
| 2026-04-30 19:49 | 52.73300 | 10.86600 | 26326 ft | 336 kts | 356° |
| 2026-04-30 19:50 | 52.75634 | 10.86085 | 26028 ft | 338 kts | 356° |
| 2026-04-30 19:50 | 52.77961 | 10.85572 | 25808 ft | 340 kts | 356° |
| 2026-04-30 19:50 | 52.80305 | 10.85051 | 25577 ft | 335 kts | 356° |
| 2026-04-30 19:50 | 52.82552 | 10.84548 | 25448 ft | 322 kts | 356° |
| 2026-04-30 19:51 | 52.84735 | 10.84076 | 25207 ft | 314 kts | 357° |
| 2026-04-30 19:51 | 52.86896 | 10.83641 | 24845 ft | 308 kts | 357° |
| 2026-04-30 19:51 | 52.88996 | 10.83224 | 24529 ft | 302 kts | 357° |
| 2026-04-30 19:51 | 52.91087 | 10.82805 | 24155 ft | 299 kts | 357° |
| 2026-04-30 19:52 | 52.93131 | 10.82396 | 23686 ft | 299 kts | 357° |
| 2026-04-30 19:52 | 52.95199 | 10.81982 | 23281 ft | 300 kts | 357° |
| 2026-04-30 19:52 | 52.97259 | 10.81564 | 22951 ft | 295 kts | 357° |
| 2026-04-30 19:52 | 52.99268 | 10.81155 | 22649 ft | 290 kts | 358° |
| 2026-04-30 19:53 | 53.01273 | 10.80745 | 22328 ft | 286 kts | 358° |
| 2026-04-30 19:53 | 53.03235 | 10.80348 | 21923 ft | 286 kts | 358° |
| 2026-04-30 19:53 | 53.05203 | 10.79948 | 21621 ft | 281 kts | 358° |
| 2026-04-30 19:53 | 53.07109 | 10.79558 | 21317 ft | 277 kts | 358° |
| 2026-04-30 19:54 | 53.09037 | 10.79166 | 20916 ft | 277 kts | 358° |
| 2026-04-30 19:54 | 53.10921 | 10.78783 | 20505 ft | 278 kts | 358° |
| 2026-04-30 19:54 | 53.12880 | 10.78386 | 20123 ft | 279 kts | 358° |
| 2026-04-30 19:54 | 53.14820 | 10.77990 | 19793 ft | 280 kts | 358° |
| 2026-04-30 19:55 | 53.16733 | 10.77599 | 19496 ft | 281 kts | 358° |
| 2026-04-30 19:55 | 53.18682 | 10.77200 | 19219 ft | 282 kts | 358° |
| 2026-04-30 19:55 | 53.20633 | 10.76799 | 18963 ft | 282 kts | 358° |
| 2026-04-30 19:55 | 53.22579 | 10.76400 | 18720 ft | 283 kts | 358° |
| 2026-04-30 19:56 | 53.24526 | 10.75998 | 18441 ft | 281 kts | 358° |
| 2026-04-30 19:56 | 53.26481 | 10.75595 | 17983 ft | 284 kts | 358° |
| 2026-04-30 19:56 | 53.28428 | 10.75196 | 17511 ft | 286 kts | 358° |
| 2026-04-30 19:56 | 53.30411 | 10.74789 | 17119 ft | 287 kts | 358° |
| 2026-04-30 19:57 | 53.32376 | 10.74382 | 16837 ft | 283 kts | 358° |
| 2026-04-30 19:57 | 53.34330 | 10.73975 | 16559 ft | 279 kts | 358° |
| 2026-04-30 19:57 | 53.36208 | 10.73583 | 16431 ft | 268 kts | 358° |
| 2026-04-30 19:57 | 53.38035 | 10.73198 | 16426 ft | 259 kts | 359° |
| 2026-04-30 19:58 | 53.39805 | 10.72833 | 16426 ft | 257 kts | 359° |
| 2026-04-30 19:58 | 53.41568 | 10.72471 | 16427 ft | 257 kts | 359° |
| 2026-04-30 19:58 | 53.43344 | 10.72107 | 16429 ft | 257 kts | 358° |
| 2026-04-30 19:58 | 53.45126 | 10.71739 | 16427 ft | 257 kts | 358° |
| 2026-04-30 19:59 | 53.46907 | 10.71370 | 16427 ft | 257 kts | 358° |
| 2026-04-30 19:59 | 53.48685 | 10.71000 | 16428 ft | 257 kts | 359° |
| 2026-04-30 19:59 | 53.52229 | 10.70262 | 16427 ft | 257 kts | 358° |
| 2026-04-30 20:00 | 53.54004 | 10.69891 | 16425 ft | 257 kts | 358° |
| 2026-04-30 20:00 | 53.55776 | 10.69520 | 16427 ft | 258 kts | 359° |
| 2026-04-30 20:00 | 53.57567 | 10.69147 | 16431 ft | 257 kts | 358° |
| 2026-04-30 20:00 | 53.59330 | 10.68778 | 16433 ft | 258 kts | 359° |
| 2026-04-30 20:01 | 53.62885 | 10.68035 | 16435 ft | 257 kts | 358° |
| 2026-04-30 20:01 | 53.64664 | 10.67682 | 16436 ft | 256 kts | 2° |
| 2026-04-30 20:01 | 53.66358 | 10.68171 | 16424 ft | 246 kts | 31° |
| 2026-04-30 20:02 | 53.68681 | 10.72321 | 16424 ft | 244 kts | 54° |
| 2026-04-30 20:02 | 53.69671 | 10.74608 | 16459 ft | 243 kts | 54° |
| 2026-04-30 20:03 | 53.70905 | 10.79790 | 16436 ft | 249 kts | 90° |
| 2026-04-30 20:03 | 53.70661 | 10.82728 | 16465 ft | 251 kts | 97° |
| 2026-04-30 20:03 | 53.69981 | 10.85458 | 16450 ft | 263 kts | 124° |
| 2026-04-30 20:03 | 53.68505 | 10.87363 | 16453 ft | 278 kts | 152° |
| 2026-04-30 20:04 | 53.66563 | 10.87934 | 16450 ft | 290 kts | 182° |
| 2026-04-30 20:04 | 53.64655 | 10.86851 | 16449 ft | 299 kts | 213° |
| 2026-04-30 20:04 | 53.63275 | 10.84285 | 16456 ft | 300 kts | 246° |
| 2026-04-30 20:05 | 53.63145 | 10.77549 | 16452 ft | 291 kts | 285° |
| 2026-04-30 20:05 | 53.63518 | 10.74233 | 16453 ft | 291 kts | 285° |
| 2026-04-30 20:05 | 53.64184 | 10.67488 | 16446 ft | 292 kts | 284° |
| 2026-04-30 20:06 | 53.64785 | 10.64335 | 16427 ft | 281 kts | 310° |
| 2026-04-30 20:06 | 53.66209 | 10.62247 | 16428 ft | 265 kts | 344° |
| 2026-04-30 20:06 | 53.67970 | 10.61726 | 16445 ft | 254 kts | 9° |
| 2026-04-30 20:06 | 53.69625 | 10.62470 | 16432 ft | 247 kts | 31° |
| 2026-04-30 20:07 | 53.70947 | 10.64258 | 16440 ft | 245 kts | 52° |
| 2026-04-30 20:07 | 53.71721 | 10.66809 | 16404 ft | 246 kts | 75° |
| 2026-04-30 20:07 | 53.71548 | 10.72585 | 16463 ft | 252 kts | 95° |
| 2026-04-30 20:08 | 53.71290 | 10.75499 | 16453 ft | 251 kts | 94° |
| 2026-04-30 20:08 | 53.71033 | 10.78410 | 16446 ft | 251 kts | 94° |
| 2026-04-30 20:08 | 53.70776 | 10.81327 | 16453 ft | 251 kts | 94° |
| 2026-04-30 20:08 | 53.70368 | 10.84182 | 16435 ft | 256 kts | 111° |
| 2026-04-30 20:09 | 53.69210 | 10.86557 | 16437 ft | 269 kts | 139° |
| 2026-04-30 20:09 | 53.67471 | 10.87815 | 16429 ft | 283 kts | 167° |
| 2026-04-30 20:09 | 53.63798 | 10.85578 | 16426 ft | 299 kts | 231° |
| 2026-04-30 20:10 | 53.62976 | 10.79094 | 16446 ft | 289 kts | 284° |
| 2026-04-30 20:10 | 53.63343 | 10.75797 | 16429 ft | 289 kts | 285° |
| 2026-04-30 20:10 | 53.63707 | 10.72458 | 16406 ft | 291 kts | 284° |
| 2026-04-30 20:11 | 53.64400 | 10.65800 | 15898 ft | 285 kts | 294° |
| 2026-04-30 20:11 | 53.65437 | 10.63107 | 15626 ft | 268 kts | 329° |
| 2026-04-30 20:11 | 53.67068 | 10.61880 | 15457 ft | 254 kts | 357° |
| 2026-04-30 20:12 | 53.70309 | 10.63241 | 15439 ft | 241 kts | 41° |
| 2026-04-30 20:12 | 53.71373 | 10.65354 | 15430 ft | 240 kts | 63° |
| 2026-04-30 20:12 | 53.71843 | 10.68061 | 15431 ft | 243 kts | 84° |
| 2026-04-30 20:13 | 53.71697 | 10.70927 | 15452 ft | 247 kts | 95° |
| 2026-04-30 20:13 | 53.71444 | 10.73764 | 15459 ft | 246 kts | 95° |
| 2026-04-30 20:13 | 53.71193 | 10.76595 | 15454 ft | 246 kts | 95° |
| 2026-04-30 20:13 | 53.70941 | 10.79446 | 15450 ft | 246 kts | 95° |
| 2026-04-30 20:14 | 53.70689 | 10.82289 | 15459 ft | 246 kts | 96° |
| 2026-04-30 20:14 | 53.70081 | 10.85022 | 15447 ft | 255 kts | 121° |
| 2026-04-30 20:14 | 53.68726 | 10.87075 | 15454 ft | 268 kts | 147° |
| 2026-04-30 20:14 | 53.66920 | 10.87895 | 15447 ft | 281 kts | 175° |
| 2026-04-30 20:15 | 53.65001 | 10.87151 | 15441 ft | 292 kts | 205° |
| 2026-04-30 20:15 | 53.63485 | 10.84893 | 15197 ft | 294 kts | 239° |
| 2026-04-30 20:15 | 53.62846 | 10.81682 | 14960 ft | 288 kts | 271° |
| 2026-04-30 20:15 | 53.63059 | 10.78331 | 14714 ft | 283 kts | 284° |
| 2026-04-30 20:16 | 53.63422 | 10.75114 | 14491 ft | 282 kts | 284° |
| 2026-04-30 20:16 | 53.63768 | 10.71870 | 14453 ft | 282 kts | 283° |
| 2026-04-30 20:16 | 53.64085 | 10.68583 | 14448 ft | 283 kts | 283° |
| 2026-04-30 20:16 | 53.64485 | 10.65402 | 14433 ft | 279 kts | 298° |
| 2026-04-30 20:17 | 53.65631 | 10.62944 | 14432 ft | 263 kts | 333° |
| 2026-04-30 20:17 | 53.67304 | 10.61874 | 14446 ft | 251 kts | 359° |
| 2026-04-30 20:17 | 53.68985 | 10.62105 | 14443 ft | 243 kts | 22° |
| 2026-04-30 20:17 | 53.70448 | 10.63444 | 14444 ft | 238 kts | 44° |
| 2026-04-30 20:18 | 53.71452 | 10.65637 | 14430 ft | 237 kts | 65° |
| 2026-04-30 20:18 | 53.71845 | 10.68307 | 14435 ft | 240 kts | 86° |
| 2026-04-30 20:18 | 53.71677 | 10.71123 | 14452 ft | 242 kts | 95° |
| 2026-04-30 20:18 | 53.71430 | 10.73919 | 14452 ft | 242 kts | 95° |
| 2026-04-30 20:19 | 53.71182 | 10.76725 | 14447 ft | 242 kts | 95° |
| 2026-04-30 20:19 | 53.70935 | 10.79507 | 14442 ft | 242 kts | 95° |
| 2026-04-30 20:19 | 53.70686 | 10.82306 | 14449 ft | 242 kts | 96° |
| 2026-04-30 20:19 | 53.70089 | 10.84996 | 14434 ft | 250 kts | 120° |
| 2026-04-30 20:20 | 53.68791 | 10.87008 | 14439 ft | 263 kts | 146° |
| 2026-04-30 20:20 | 53.67009 | 10.87884 | 14429 ft | 275 kts | 174° |
| 2026-04-30 20:20 | 53.65133 | 10.87269 | 14293 ft | 286 kts | 204° |
| 2026-04-30 20:20 | 53.63603 | 10.85145 | 14042 ft | 288 kts | 236° |
| 2026-04-30 20:21 | 53.62882 | 10.82059 | 13806 ft | 284 kts | 267° |
| 2026-04-30 20:21 | 53.63018 | 10.78806 | 13572 ft | 279 kts | 284° |
| 2026-04-30 20:21 | 53.63377 | 10.75547 | 13315 ft | 278 kts | 284° |
| 2026-04-30 20:21 | 53.63718 | 10.72387 | 13074 ft | 277 kts | 283° |
| 2026-04-30 20:22 | 53.64031 | 10.69179 | 12825 ft | 276 kts | 282° |
| 2026-04-30 20:22 | 53.64370 | 10.66015 | 12571 ft | 273 kts | 292° |
| 2026-04-30 20:22 | 53.65351 | 10.63440 | 12438 ft | 258 kts | 327° |
| 2026-04-30 20:22 | 53.66895 | 10.62100 | 12438 ft | 248 kts | 353° |
| 2026-04-30 20:23 | 53.68578 | 10.61998 | 12437 ft | 238 kts | 16° |
| 2026-04-30 20:23 | 53.70063 | 10.62978 | 12279 ft | 228 kts | 37° |
| 2026-04-30 20:23 | 53.71184 | 10.64836 | 11876 ft | 227 kts | 58° |
| 2026-04-30 20:23 | 53.71777 | 10.67295 | 11503 ft | 227 kts | 79° |
| 2026-04-30 20:24 | 53.71767 | 10.69922 | 11461 ft | 230 kts | 95° |
| 2026-04-30 20:24 | 53.71536 | 10.72626 | 11471 ft | 231 kts | 95° |
| 2026-04-30 20:24 | 53.71303 | 10.75306 | 11456 ft | 231 kts | 95° |
| 2026-04-30 20:24 | 53.71069 | 10.77969 | 11453 ft | 231 kts | 95° |
| 2026-04-30 20:25 | 53.70557 | 10.83316 | 11456 ft | 233 kts | 104° |
| 2026-04-30 20:25 | 53.69753 | 10.85703 | 11455 ft | 241 kts | 129° |
| 2026-04-30 20:26 | 53.66622 | 10.87864 | 11447 ft | 262 kts | 181° |
| 2026-04-30 20:26 | 53.63590 | 10.84724 | 11071 ft | 269 kts | 240° |
| 2026-04-30 20:26 | 53.63028 | 10.81747 | 10698 ft | 268 kts | 265° |
| 2026-04-30 20:27 | 53.62786 | 10.75565 | 10120 ft | 262 kts | 269° |
| 2026-04-30 20:27 | 53.62612 | 10.69512 | 9542 ft | 259 kts | 270° |
| 2026-04-30 20:28 | 53.62459 | 10.63448 | 8805 ft | 262 kts | 270° |
| 2026-04-30 20:28 | 53.62341 | 10.57278 | 8062 ft | 265 kts | 270° |
| 2026-04-30 20:29 | 53.62230 | 10.51096 | 7399 ft | 265 kts | 270° |
| 2026-04-30 20:30 | 53.62051 | 10.41837 | 6490 ft | 260 kts | 270° |
| 2026-04-30 20:30 | 53.61876 | 10.32816 | 5634 ft | 254 kts | 269° |
| 2026-04-30 20:31 | 53.61716 | 10.24033 | 4996 ft | 238 kts | 269° |
| 2026-04-30 20:32 | 53.60251 | 10.16041 | 4898 ft | 246 kts | 232° |
| 2026-04-30 20:32 | 53.58120 | 10.11540 | 4990 ft | 246 kts | 229° |
| 2026-04-30 20:33 | 53.57045 | 10.09275 | 5008 ft | 246 kts | 230° |
| 2026-04-30 20:33 | 53.54924 | 10.04715 | 5044 ft | 246 kts | 230° |
| 2026-04-30 20:33 | 53.53858 | 10.02479 | 5050 ft | 246 kts | 230° |
| 2026-04-30 20:34 | 53.51675 | 9.98024 | 5031 ft | 246 kts | 228° |
| 2026-04-30 20:34 | 53.49456 | 9.93628 | 5014 ft | 246 kts | 229° |
| 2026-04-30 20:35 | 53.48361 | 9.91400 | 5011 ft | 247 kts | 229° |
| 2026-04-30 20:35 | 53.47264 | 9.89181 | 5014 ft | 247 kts | 229° |
| 2026-04-30 20:35 | 53.45084 | 9.84719 | 5047 ft | 247 kts | 229° |
| 2026-04-30 20:36 | 53.44014 | 9.82494 | 5059 ft | 246 kts | 230° |
| 2026-04-30 20:36 | 53.42943 | 9.80258 | 5064 ft | 246 kts | 230° |
| 2026-04-30 20:36 | 53.40791 | 9.75754 | 5068 ft | 247 kts | 229° |
| 2026-04-30 20:37 | 53.39720 | 9.73548 | 5018 ft | 246 kts | 229° |
| 2026-04-30 20:37 | 53.38626 | 9.71306 | 5033 ft | 246 kts | 229° |
| 2026-04-30 20:37 | 53.37544 | 9.69076 | 5046 ft | 247 kts | 229° |
| 2026-04-30 20:37 | 53.36438 | 9.66863 | 5052 ft | 247 kts | 228° |
| 2026-04-30 20:38 | 53.35355 | 9.64658 | 5038 ft | 247 kts | 229° |
| 2026-04-30 20:38 | 53.34265 | 9.62437 | 5018 ft | 246 kts | 228° |
| 2026-04-30 20:38 | 53.33320 | 9.60027 | 5000 ft | 249 kts | 249° |
| 2026-04-30 20:39 | 53.33796 | 9.54546 | 4933 ft | 246 kts | 312° |
| 2026-04-30 20:39 | 53.35124 | 9.52856 | 4907 ft | 239 kts | 343° |
| 2026-04-30 20:39 | 53.36717 | 9.52541 | 4921 ft | 231 kts | 14° |
| 2026-04-30 20:40 | 53.39716 | 9.54294 | 5096 ft | 229 kts | 26° |
| 2026-04-30 20:40 | 53.41149 | 9.55385 | 5154 ft | 227 kts | 34° |
| 2026-04-30 20:40 | 53.42364 | 9.57038 | 5072 ft | 222 kts | 52° |
| 2026-04-30 20:41 | 53.44379 | 9.60958 | 4948 ft | 221 kts | 52° |
| 2026-04-30 20:41 | 53.45374 | 9.62931 | 4896 ft | 221 kts | 52° |
| 2026-04-30 20:41 | 53.46369 | 9.64887 | 4825 ft | 222 kts | 52° |
| 2026-04-30 20:41 | 53.47369 | 9.66839 | 4521 ft | 223 kts | 52° |
| 2026-04-30 20:42 | 53.48378 | 9.68813 | 4192 ft | 223 kts | 52° |
| 2026-04-30 20:42 | 53.49361 | 9.70810 | 3839 ft | 220 kts | 53° |
| 2026-04-30 20:42 | 53.51246 | 9.74767 | 3145 ft | 215 kts | 52° |
| 2026-04-30 20:43 | 53.52183 | 9.76691 | 2892 ft | 208 kts | 53° |
| 2026-04-30 20:43 | 53.53048 | 9.78494 | 2865 ft | 187 kts | 53° |
| 2026-04-30 20:43 | 53.53846 | 9.80156 | 2724 ft | 179 kts | 53° |
| 2026-04-30 20:44 | 53.55380 | 9.83349 | 2180 ft | 168 kts | 52° |
| 2026-04-30 20:44 | 53.56090 | 9.84779 | 1950 ft | 152 kts | 51° |
| 2026-04-30 20:44 | 53.57352 | 9.87282 | 1509 ft | 132 kts | 52° |
| 2026-04-30 20:45 | 53.58521 | 9.89675 | 1136 ft | 132 kts | 52° |
| 2026-04-30 20:45 | 53.59106 | 9.90861 | 957 ft | 133 kts | 52° |
| 2026-04-30 20:45 | 53.59694 | 9.92065 | 795 ft | 132 kts | 51° |
| 2026-04-30 20:46 | 53.61459 | 9.95628 | 264 ft | 132 kts | 51° |
| 2026-04-30 20:46 | 53.62048 | 9.96822 | 95 ft | 131 kts | 51° |
| 2026-04-30 20:47 | 53.62921 | 9.98595 | 62 ft | 56 kts | 50° |
| 2026-04-30 20:47 | 53.63075 | 9.98989 | 62 ft | 26 kts | 73° |
| 2026-04-30 20:48 | 53.63087 | 9.99345 | 62 ft | 0 kts | 77° |
| 2026-04-30 20:48 | 53.63088 | 9.99352 | 62 ft | 1 kts | 75° |
| 2026-04-30 20:48 | 53.63127 | 9.99470 | 62 ft | 17 kts | 54° |
| 2026-04-30 20:48 | 53.63205 | 9.99631 | 62 ft | 17 kts | 49° |
| 2026-04-30 20:49 | 53.63245 | 9.99705 | 62 ft | 4 kts | 52° |
| 2026-04-30 20:49 | 53.63237 | 9.99749 | 62 ft | 5 kts | 148° |
| 2026-04-30 20:49 | 53.63197 | 9.99788 | 62 ft | 7 kts | 151° |
| 2026-04-30 20:50 | 53.63059 | 9.99908 | 62 ft | 13 kts | 153° |
| 2026-04-30 20:50 | 53.62978 | 9.99979 | 62 ft | 9 kts | 150° |
| 2026-04-30 20:50 | 53.62940 | 10.00038 | 62 ft | 7 kts | 132° |
| 2026-04-30 20:50 | 53.62931 | 10.00122 | 62 ft | 7 kts | 51° |
| 2026-04-30 20:51 | 53.62946 | 10.00169 | 62 ft | 5 kts | 84° |
| 2026-04-30 20:51 | 53.62930 | 10.00274 | 62 ft | 2 kts | 108° |
| 2026-04-30 20:51 | 53.62927 | 10.00288 | 62 ft | 0 kts | 107° |